Relevés horaires Bierset (Belgique)


Relevés horaires à Bierset - Samedi 20 Juin 2020
Heure UTC1 Température [°C] Vent [km/h] Hum. [%] Pres.4 [hPa] Visi. [Km] Nébu. [octa] Préc.5 [mm] Cond.
2m. Res. Ros. Dir.2 Vit. Moy. Raf.3
23:00 17.0 17.0 10.6 SE 5.6 5.6 9.3 66 1021.3(0.2/3h) 30 1/8 -- --
22:00 18.1 18.1 10.0 ESE 3.7 3.7 11.1 59 1021.6(0.7/3h) 30 1/8 -- --
21:00 17.9 17.9 10.3 ENE 3.7 3.7 5.6 61 1021.3(0.3/3h) 30 1/8 -- --
20:00 18.4 18.4 10.7 N 1.9 1.9 3.7 61 1021(-0.1/3h) 30 1/8 -- --
19:00 19.7 19.7 10.3 NO 1.9 3.7 5.6 55 1020.8(-0.5/3h) 30 1/8 -- --
18:00 20.7 20.7 11.0 NNO 1.9 7.4 13.0 54 1020.8(-0.5/3h) 30 1/8 0/12h
--
17:00 20.7 20.7 10.4 O 1.9 5.6 9.3 52 1021(-0.7/3h) 30 4/8 -- --
16:00 20.4 20.4 9.5 ONO 5.6 7.4 11.1 50 1021.3(-0.8/3h) 30 4/8 -- --
15:00 21.0 21.0 10.3 O 5.6 7.4 13.0 50 1021.3(-0.8/3h) 30 3/8 -- --
14:00 21.0 21.0 10.8 O 7.4 7.4 13.0 52 1021.7(-0.4/3h) 30 3/8 -- --
13:00 19.8 19.8 9.9 ONO 7.4 7.4 11.1 53 1022.1(0.1/3h) 30 4/8 -- --
12:00 18.5 18.5 9.4 O 7.4 9.3 14.8 55 1022.3(0.2/3h) 30 5/8 0/6h
--
11:00 19.6 19.6 9.5 O 7.4 9.3 14.8 52 1022.2(0.2/3h) 30 5/8 -- --
10:00 18.2 18.2 8.2 O 9.3 9.3 14.8 52 1022.3(0.3/3h) 30 3/8 -- --
09:00 18.0 18.0 8.3 O 3.7 5.6 9.3 53 1022.2(0.5/3h) 30 4/8 -- --
08:00 16.5 16.5 8.8 OSO 3.7 5.6 7.4 60 1022.3(0.6/3h) 30 3/8 -- --
07:00 15.7 15.7 8.7 O 3.7 3.7 5.6 63 1022.2(0.8/3h) 30 2/8 -- --
06:00 14.7 14.7 8.5 OSO 1.9 5.6 7.4 66 1021.9(0.8/3h) 30 2/8 0/12h
--
05:00 13.1 13.1 9.9 O 3.7 3.7 5.6 81 1022(1.1/3h) 30 3/8 -- --
04:00 13.0 13.0 11.4 O 3.7 3.7 5.6 90 1021.6(0.7/3h) 30 5/8 -- --
03:00 13.5 13.5 11.9 O 3.7 5.6 7.4 90 1021.2(0.5/3h) 30 7/8 -- --
02:00 13.8 13.8 11.7 O 3.7 5.6 7.4 87 1020.8(0.3/3h) 30 6/8 -- --
01:00 13.6 13.6 11.7 O 3.7 5.6 5.6 88 1020.8(0.5/3h) 30 3/8 -- --
00:00 14.6 14.6 12.0 O 5.6 9.3 13.0 84 1020.5(0.9/3h) 30 3/8 0/6h
0/24h
--

1 Coordinated Universal Time. Actuellement il est 17:00 locale et 16:00 UTC.

2 Le vent souffle depuis la direction indiquée vers la direction oposée.

3 Les rafales max. sont disponible 40 min après l'heure du relevé.

4 Pour les stations d'altitude (plus de 600m) le géopotentiel du niveau le plus proche de la pression obligatoire est indiqué.

5 Les stations disposant d'un diffuseur peuvent indiquer "trace". Cela signifie que des précipitations ont touchés le sol mais que la quantité est inférieure à 0.1 mm.

Récapitulatif de la journée
Température [°C] Vent [km/h] Ensoleillement4 [h] Precipitations totale5 [mm] Pression [Hpa]
Min1 Max.2 Moy.3 Max. Min Max.
12.8 21.6 6 14.8 0 h 0 min 0 1020.5 1022.3

1 Température minimale relevée entre 18:00 UTC la veille et 18:00 UTC le jour donné.

2 Température maximale relevée entre 06:00 UTC le jour donné et 06:00 UTC le lendemain.

3 Vent moyen de la journée basé sur les relevés horaires.

4 Ensoleillement en heures relevé entre 06:00 UTC la veille et 06:00 UTC le jour donné.

5 Précipitations totales tombées entre 06:00 UTC la jour donné et 06:00 UTC le lendemain.

Graphiques horaires